sensor_id;sensor_type;location;lat;lon;timestamp;P1;durP1;ratioP1;P2;durP2;ratioP2
30127;SDS011;16942;53.196;6.592;2022-10-17T00:02:17;11.73;;;4.87;;
30127;SDS011;16942;53.196;6.592;2022-10-17T00:04:43;11.83;;;4.43;;
30127;SDS011;16942;53.196;6.592;2022-10-17T00:07:09;10.13;;;3.73;;
30127;SDS011;16942;53.196;6.592;2022-10-17T00:09:36;9.63;;;4.10;;
30127;SDS011;16942;53.196;6.592;2022-10-17T00:12:02;12.57;;;4.30;;
30127;SDS011;16942;53.196;6.592;2022-10-17T00:14:28;10.00;;;4.03;;
30127;SDS011;16942;53.196;6.592;2022-10-17T00:16:54;7.80;;;4.20;;
30127;SDS011;16942;53.196;6.592;2022-10-17T00:19:20;7.27;;;4.60;;
30127;SDS011;16942;53.196;6.592;2022-10-17T00:21:47;9.37;;;4.93;;
30127;SDS011;16942;53.196;6.592;2022-10-17T00:24:13;10.60;;;4.77;;
30127;SDS011;16942;53.196;6.592;2022-10-17T00:26:39;15.90;;;5.73;;
30127;SDS011;16942;53.196;6.592;2022-10-17T00:29:05;11.77;;;6.33;;
30127;SDS011;16942;53.196;6.592;2022-10-17T00:31:31;14.77;;;7.80;;
30127;SDS011;16942;53.196;6.592;2022-10-17T00:33:57;19.77;;;8.40;;
30127;SDS011;16942;53.196;6.592;2022-10-17T00:36:25;15.17;;;8.73;;
30127;SDS011;16942;53.196;6.592;2022-10-17T00:38:52;14.27;;;8.73;;
30127;SDS011;16942;53.196;6.592;2022-10-17T00:41:20;16.63;;;10.73;;
30127;SDS011;16942;53.196;6.592;2022-10-17T00:44:06;18.93;;;10.47;;
30127;SDS011;16942;53.196;6.592;2022-10-17T00:46:36;21.77;;;11.63;;
30127;SDS011;16942;53.196;6.592;2022-10-17T00:49:07;20.53;;;11.03;;
30127;SDS011;16942;53.196;6.592;2022-10-17T00:51:42;20.57;;;11.57;;
30127;SDS011;16942;53.196;6.592;2022-10-17T00:54:09;19.60;;;11.87;;
30127;SDS011;16942;53.196;6.592;2022-10-17T00:56:36;20.37;;;11.33;;
30127;SDS011;16942;53.196;6.592;2022-10-17T00:59:04;25.10;;;11.17;;
30127;SDS011;16942;53.196;6.592;2022-10-17T01:01:30;19.93;;;10.17;;
30127;SDS011;16942;53.196;6.592;2022-10-17T01:03:56;20.00;;;10.37;;
30127;SDS011;16942;53.196;6.592;2022-10-17T01:06:22;19.23;;;9.20;;
30127;SDS011;16942;53.196;6.592;2022-10-17T01:08:48;20.93;;;10.40;;
30127;SDS011;16942;53.196;6.592;2022-10-17T01:11:24;17.57;;;8.77;;
30127;SDS011;16942;53.196;6.592;2022-10-17T01:16:35;13.73;;;7.43;;
30127;SDS011;16942;53.196;6.592;2022-10-17T01:21:36;16.43;;;7.33;;
30127;SDS011;16942;53.196;6.592;2022-10-17T01:24:13;13.50;;;7.00;;
30127;SDS011;16942;53.196;6.592;2022-10-17T01:32:00;11.53;;;5.60;;
30127;SDS011;16942;53.196;6.592;2022-10-17T01:34:32;17.70;;;5.20;;
30127;SDS011;16942;53.196;6.592;2022-10-17T01:37:05;14.77;;;5.27;;
30127;SDS011;16942;53.196;6.592;2022-10-17T01:42:05;10.70;;;5.00;;
30127;SDS011;16942;53.196;6.592;2022-10-17T01:44:38;10.53;;;4.93;;
30127;SDS011;16942;53.196;6.592;2022-10-17T01:47:08;14.73;;;5.50;;
30127;SDS011;16942;53.196;6.592;2022-10-17T01:49:36;17.00;;;4.70;;
30127;SDS011;16942;53.196;6.592;2022-10-17T01:52:08;12.83;;;4.27;;
30127;SDS011;16942;53.196;6.592;2022-10-17T01:54:42;9.37;;;4.70;;
30127;SDS011;16942;53.196;6.592;2022-10-17T01:57:11;12.03;;;4.70;;
30127;SDS011;16942;53.196;6.592;2022-10-17T01:59:39;6.77;;;4.40;;
30127;SDS011;16942;53.196;6.592;2022-10-17T02:02:06;9.03;;;5.00;;
30127;SDS011;16942;53.196;6.592;2022-10-17T02:04:34;9.97;;;4.60;;
30127;SDS011;16942;53.196;6.592;2022-10-17T02:07:08;10.67;;;5.07;;
30127;SDS011;16942;53.196;6.592;2022-10-17T02:09:34;6.83;;;4.80;;
30127;SDS011;16942;53.196;6.592;2022-10-17T02:12:09;8.20;;;4.47;;
30127;SDS011;16942;53.196;6.592;2022-10-17T02:19:50;11.37;;;5.80;;
30127;SDS011;16942;53.196;6.592;2022-10-17T02:24:50;8.53;;;4.77;;
30127;SDS011;16942;53.196;6.592;2022-10-17T02:27:41;16.70;;;5.80;;
30127;SDS011;16942;53.196;6.592;2022-10-17T02:32:37;13.13;;;5.40;;
30127;SDS011;16942;53.196;6.592;2022-10-17T02:35:07;14.80;;;5.47;;
30127;SDS011;16942;53.196;6.592;2022-10-17T02:37:34;11.93;;;6.40;;
30127;SDS011;16942;53.196;6.592;2022-10-17T02:40:00;7.77;;;5.53;;
30127;SDS011;16942;53.196;6.592;2022-10-17T02:42:27;7.30;;;5.30;;
30127;SDS011;16942;53.196;6.592;2022-10-17T02:44:53;6.63;;;4.90;;
30127;SDS011;16942;53.196;6.592;2022-10-17T02:47:27;9.37;;;5.83;;
30127;SDS011;16942;53.196;6.592;2022-10-17T02:49:55;10.27;;;5.20;;
30127;SDS011;16942;53.196;6.592;2022-10-17T02:52:32;8.53;;;5.77;;
30127;SDS011;16942;53.196;6.592;2022-10-17T02:55:02;9.33;;;6.00;;
30127;SDS011;16942;53.196;6.592;2022-10-17T02:57:38;11.53;;;6.77;;
30127;SDS011;16942;53.196;6.592;2022-10-17T03:00:06;9.53;;;5.70;;
30127;SDS011;16942;53.196;6.592;2022-10-17T03:02:40;9.07;;;5.17;;
30127;SDS011;16942;53.196;6.592;2022-10-17T03:05:07;8.20;;;5.57;;
30127;SDS011;16942;53.196;6.592;2022-10-17T03:07:33;8.90;;;5.80;;
30127;SDS011;16942;53.196;6.592;2022-10-17T03:09:59;8.20;;;6.00;;
30127;SDS011;16942;53.196;6.592;2022-10-17T03:12:25;10.00;;;6.20;;
30127;SDS011;16942;53.196;6.592;2022-10-17T03:14:51;11.53;;;6.03;;
30127;SDS011;16942;53.196;6.592;2022-10-17T03:17:17;13.40;;;6.13;;
30127;SDS011;16942;53.196;6.592;2022-10-17T03:19:43;10.77;;;7.00;;
30127;SDS011;16942;53.196;6.592;2022-10-17T03:22:09;10.00;;;5.73;;
30127;SDS011;16942;53.196;6.592;2022-10-17T03:24:35;12.43;;;7.00;;
30127;SDS011;16942;53.196;6.592;2022-10-17T03:27:01;10.67;;;6.90;;
30127;SDS011;16942;53.196;6.592;2022-10-17T03:29:27;13.43;;;7.60;;
30127;SDS011;16942;53.196;6.592;2022-10-17T03:31:53;13.20;;;7.40;;
30127;SDS011;16942;53.196;6.592;2022-10-17T03:34:19;8.53;;;7.20;;
30127;SDS011;16942;53.196;6.592;2022-10-17T03:36:45;11.37;;;6.90;;
30127;SDS011;16942;53.196;6.592;2022-10-17T03:39:11;13.13;;;8.13;;
30127;SDS011;16942;53.196;6.592;2022-10-17T03:41:38;16.87;;;7.60;;
30127;SDS011;16942;53.196;6.592;2022-10-17T03:44:04;12.50;;;7.43;;
30127;SDS011;16942;53.196;6.592;2022-10-17T03:46:30;12.90;;;7.53;;
30127;SDS011;16942;53.196;6.592;2022-10-17T03:48:56;11.03;;;7.83;;
30127;SDS011;16942;53.196;6.592;2022-10-17T03:51:22;11.63;;;7.87;;
30127;SDS011;16942;53.196;6.592;2022-10-17T03:53:48;16.00;;;8.57;;
30127;SDS011;16942;53.196;6.592;2022-10-17T03:56:18;14.90;;;8.57;;
30127;SDS011;16942;53.196;6.592;2022-10-17T03:58:45;12.50;;;8.50;;
30127;SDS011;16942;53.196;6.592;2022-10-17T04:01:12;12.77;;;8.43;;
30127;SDS011;16942;53.196;6.592;2022-10-17T04:03:38;13.73;;;8.73;;
30127;SDS011;16942;53.196;6.592;2022-10-17T04:06:05;14.97;;;8.70;;
30127;SDS011;16942;53.196;6.592;2022-10-17T04:08:31;13.00;;;8.30;;
30127;SDS011;16942;53.196;6.592;2022-10-17T04:11:01;15.67;;;8.73;;
30127;SDS011;16942;53.196;6.592;2022-10-17T04:13:27;11.13;;;9.17;;
30127;SDS011;16942;53.196;6.592;2022-10-17T04:15:57;13.23;;;9.73;;
30127;SDS011;16942;53.196;6.592;2022-10-17T04:18:24;14.57;;;8.83;;
30127;SDS011;16942;53.196;6.592;2022-10-17T04:20:50;13.27;;;9.73;;
30127;SDS011;16942;53.196;6.592;2022-10-17T04:23:16;14.47;;;9.83;;
30127;SDS011;16942;53.196;6.592;2022-10-17T04:25:42;17.47;;;10.17;;
30127;SDS011;16942;53.196;6.592;2022-10-17T04:28:08;15.03;;;10.13;;
30127;SDS011;16942;53.196;6.592;2022-10-17T04:30:34;14.20;;;9.63;;
30127;SDS011;16942;53.196;6.592;2022-10-17T04:33:00;13.40;;;9.73;;
30127;SDS011;16942;53.196;6.592;2022-10-17T04:35:26;13.40;;;10.23;;
30127;SDS011;16942;53.196;6.592;2022-10-17T04:37:52;15.60;;;10.27;;
30127;SDS011;16942;53.196;6.592;2022-10-17T04:40:19;13.10;;;9.27;;
30127;SDS011;16942;53.196;6.592;2022-10-17T04:42:45;17.00;;;10.10;;
30127;SDS011;16942;53.196;6.592;2022-10-17T04:45:11;13.73;;;10.10;;
30127;SDS011;16942;53.196;6.592;2022-10-17T04:47:37;14.87;;;9.83;;
30127;SDS011;16942;53.196;6.592;2022-10-17T04:50:04;12.87;;;9.80;;
30127;SDS011;16942;53.196;6.592;2022-10-17T04:52:30;17.17;;;10.10;;
30127;SDS011;16942;53.196;6.592;2022-10-17T04:54:56;18.03;;;10.27;;
30127;SDS011;16942;53.196;6.592;2022-10-17T04:57:22;14.80;;;10.60;;
30127;SDS011;16942;53.196;6.592;2022-10-17T04:59:49;14.23;;;9.73;;
30127;SDS011;16942;53.196;6.592;2022-10-17T05:02:15;11.27;;;9.53;;
30127;SDS011;16942;53.196;6.592;2022-10-17T05:04:41;13.47;;;9.07;;
30127;SDS011;16942;53.196;6.592;2022-10-17T05:07:07;13.73;;;10.70;;
30127;SDS011;16942;53.196;6.592;2022-10-17T05:09:33;15.90;;;10.23;;
30127;SDS011;16942;53.196;6.592;2022-10-17T05:11:59;14.77;;;9.80;;
30127;SDS011;16942;53.196;6.592;2022-10-17T05:14:25;12.93;;;9.63;;
30127;SDS011;16942;53.196;6.592;2022-10-17T05:16:51;13.83;;;10.47;;
30127;SDS011;16942;53.196;6.592;2022-10-17T05:19:17;12.73;;;9.73;;
30127;SDS011;16942;53.196;6.592;2022-10-17T05:21:43;14.10;;;9.93;;
30127;SDS011;16942;53.196;6.592;2022-10-17T05:24:10;17.07;;;10.50;;
30127;SDS011;16942;53.196;6.592;2022-10-17T05:26:38;16.77;;;9.83;;
30127;SDS011;16942;53.196;6.592;2022-10-17T05:29:04;13.27;;;9.43;;
30127;SDS011;16942;53.196;6.592;2022-10-17T05:31:30;14.17;;;10.40;;
30127;SDS011;16942;53.196;6.592;2022-10-17T05:34:00;15.37;;;9.83;;
30127;SDS011;16942;53.196;6.592;2022-10-17T05:36:26;16.63;;;11.93;;
30127;SDS011;16942;53.196;6.592;2022-10-17T05:38:52;13.60;;;11.10;;
30127;SDS011;16942;53.196;6.592;2022-10-17T05:41:19;16.77;;;10.87;;
30127;SDS011;16942;53.196;6.592;2022-10-17T05:43:45;16.97;;;10.97;;
30127;SDS011;16942;53.196;6.592;2022-10-17T05:46:11;12.77;;;10.73;;
30127;SDS011;16942;53.196;6.592;2022-10-17T05:48:37;17.27;;;11.57;;
30127;SDS011;16942;53.196;6.592;2022-10-17T05:51:05;15.07;;;10.80;;
30127;SDS011;16942;53.196;6.592;2022-10-17T05:53:32;19.87;;;12.77;;
30127;SDS011;16942;53.196;6.592;2022-10-17T05:55:59;16.90;;;10.83;;
30127;SDS011;16942;53.196;6.592;2022-10-17T05:58:26;16.67;;;11.47;;
30127;SDS011;16942;53.196;6.592;2022-10-17T06:01:03;15.27;;;11.47;;
30127;SDS011;16942;53.196;6.592;2022-10-17T06:03:30;16.83;;;11.83;;
30127;SDS011;16942;53.196;6.592;2022-10-17T06:06:01;16.17;;;11.57;;
30127;SDS011;16942;53.196;6.592;2022-10-17T06:08:27;17.50;;;12.60;;
30127;SDS011;16942;53.196;6.592;2022-10-17T06:10:53;20.57;;;13.37;;
30127;SDS011;16942;53.196;6.592;2022-10-17T06:13:19;19.20;;;12.63;;
30127;SDS011;16942;53.196;6.592;2022-10-17T06:15:45;30.70;;;14.60;;
30127;SDS011;16942;53.196;6.592;2022-10-17T06:18:12;36.17;;;14.67;;
30127;SDS011;16942;53.196;6.592;2022-10-17T06:20:38;31.03;;;14.50;;
30127;SDS011;16942;53.196;6.592;2022-10-17T06:23:04;25.37;;;13.10;;
30127;SDS011;16942;53.196;6.592;2022-10-17T06:25:30;23.97;;;12.77;;
30127;SDS011;16942;53.196;6.592;2022-10-17T06:27:56;32.03;;;13.60;;
30127;SDS011;16942;53.196;6.592;2022-10-17T06:30:23;19.80;;;12.87;;
30127;SDS011;16942;53.196;6.592;2022-10-17T06:32:50;18.80;;;13.33;;
30127;SDS011;16942;53.196;6.592;2022-10-17T06:35:16;32.27;;;14.13;;
30127;SDS011;16942;53.196;6.592;2022-10-17T06:37:42;27.53;;;14.10;;
30127;SDS011;16942;53.196;6.592;2022-10-17T06:40:08;20.73;;;14.07;;
30127;SDS011;16942;53.196;6.592;2022-10-17T06:42:36;24.67;;;13.30;;
30127;SDS011;16942;53.196;6.592;2022-10-17T06:45:02;27.43;;;14.60;;
30127;SDS011;16942;53.196;6.592;2022-10-17T06:47:28;19.83;;;13.60;;
30127;SDS011;16942;53.196;6.592;2022-10-17T06:49:54;33.00;;;13.67;;
30127;SDS011;16942;53.196;6.592;2022-10-17T06:52:20;18.10;;;13.37;;
30127;SDS011;16942;53.196;6.592;2022-10-17T06:54:46;20.23;;;12.70;;
30127;SDS011;16942;53.196;6.592;2022-10-17T06:57:12;19.23;;;12.57;;
30127;SDS011;16942;53.196;6.592;2022-10-17T06:59:39;19.37;;;12.83;;
30127;SDS011;16942;53.196;6.592;2022-10-17T07:02:05;32.17;;;17.10;;
30127;SDS011;16942;53.196;6.592;2022-10-17T07:04:32;21.03;;;14.13;;
30127;SDS011;16942;53.196;6.592;2022-10-17T07:06:58;29.27;;;13.83;;
30127;SDS011;16942;53.196;6.592;2022-10-17T07:09:26;17.07;;;11.93;;
30127;SDS011;16942;53.196;6.592;2022-10-17T07:11:53;19.30;;;12.37;;
30127;SDS011;16942;53.196;6.592;2022-10-17T07:14:19;19.37;;;12.70;;
30127;SDS011;16942;53.196;6.592;2022-10-17T07:16:45;21.97;;;11.97;;
30127;SDS011;16942;53.196;6.592;2022-10-17T07:19:11;18.43;;;12.27;;
30127;SDS011;16942;53.196;6.592;2022-10-17T07:21:37;24.80;;;12.80;;
30127;SDS011;16942;53.196;6.592;2022-10-17T07:24:03;18.67;;;12.27;;
30127;SDS011;16942;53.196;6.592;2022-10-17T07:26:31;20.70;;;12.53;;
30127;SDS011;16942;53.196;6.592;2022-10-17T07:28:57;16.00;;;10.93;;
30127;SDS011;16942;53.196;6.592;2022-10-17T07:31:23;16.17;;;11.17;;
30127;SDS011;16942;53.196;6.592;2022-10-17T07:33:49;16.63;;;11.50;;
30127;SDS011;16942;53.196;6.592;2022-10-17T07:36:16;18.87;;;11.57;;
30127;SDS011;16942;53.196;6.592;2022-10-17T07:38:42;17.73;;;11.23;;
30127;SDS011;16942;53.196;6.592;2022-10-17T07:41:09;16.90;;;10.80;;
30127;SDS011;16942;53.196;6.592;2022-10-17T07:43:36;20.87;;;9.83;;
30127;SDS011;16942;53.196;6.592;2022-10-17T07:46:03;14.53;;;10.53;;
30127;SDS011;16942;53.196;6.592;2022-10-17T07:48:29;15.77;;;10.30;;
30127;SDS011;16942;53.196;6.592;2022-10-17T07:50:56;16.80;;;10.90;;
30127;SDS011;16942;53.196;6.592;2022-10-17T07:53:22;13.13;;;10.43;;
30127;SDS011;16942;53.196;6.592;2022-10-17T07:55:48;15.90;;;10.23;;
30127;SDS011;16942;53.196;6.592;2022-10-17T07:58:15;13.00;;;9.23;;
30127;SDS011;16942;53.196;6.592;2022-10-17T08:00:41;15.73;;;9.67;;
30127;SDS011;16942;53.196;6.592;2022-10-17T08:03:08;16.10;;;9.83;;
30127;SDS011;16942;53.196;6.592;2022-10-17T08:05:35;16.60;;;10.93;;
30127;SDS011;16942;53.196;6.592;2022-10-17T08:08:01;13.43;;;9.10;;
30127;SDS011;16942;53.196;6.592;2022-10-17T08:10:27;13.50;;;8.77;;
30127;SDS011;16942;53.196;6.592;2022-10-17T08:12:54;11.73;;;8.90;;
30127;SDS011;16942;53.196;6.592;2022-10-17T08:15:21;12.13;;;8.87;;
30127;SDS011;16942;53.196;6.592;2022-10-17T08:17:47;11.23;;;8.57;;
30127;SDS011;16942;53.196;6.592;2022-10-17T08:20:13;15.83;;;8.90;;
30127;SDS011;16942;53.196;6.592;2022-10-17T08:22:40;11.33;;;8.77;;
30127;SDS011;16942;53.196;6.592;2022-10-17T08:25:06;10.67;;;8.50;;
30127;SDS011;16942;53.196;6.592;2022-10-17T08:27:32;11.93;;;8.77;;
30127;SDS011;16942;53.196;6.592;2022-10-17T08:29:59;12.93;;;8.70;;
30127;SDS011;16942;53.196;6.592;2022-10-17T08:32:25;12.17;;;8.80;;
30127;SDS011;16942;53.196;6.592;2022-10-17T08:34:52;10.93;;;8.17;;
30127;SDS011;16942;53.196;6.592;2022-10-17T08:37:20;13.00;;;8.20;;
30127;SDS011;16942;53.196;6.592;2022-10-17T08:39:46;14.00;;;8.77;;
30127;SDS011;16942;53.196;6.592;2022-10-17T08:45:05;11.83;;;8.00;;
30127;SDS011;16942;53.196;6.592;2022-10-17T08:47:37;11.77;;;8.10;;
30127;SDS011;16942;53.196;6.592;2022-10-17T08:50:04;13.60;;;8.40;;
30127;SDS011;16942;53.196;6.592;2022-10-17T08:52:39;11.47;;;7.80;;
30127;SDS011;16942;53.196;6.592;2022-10-17T08:55:12;9.90;;;8.00;;
30127;SDS011;16942;53.196;6.592;2022-10-17T08:57:39;11.77;;;7.70;;
30127;SDS011;16942;53.196;6.592;2022-10-17T09:00:07;10.53;;;7.37;;
30127;SDS011;16942;53.196;6.592;2022-10-17T09:02:47;10.40;;;7.27;;
30127;SDS011;16942;53.196;6.592;2022-10-17T09:15:57;11.47;;;7.70;;
30127;SDS011;16942;53.196;6.592;2022-10-17T09:18:28;12.10;;;7.97;;
30127;SDS011;16942;53.196;6.592;2022-10-17T09:20:59;10.83;;;7.73;;
30127;SDS011;16942;53.196;6.592;2022-10-17T09:23:30;10.63;;;8.53;;
30127;SDS011;16942;53.196;6.592;2022-10-17T09:25:57;9.73;;;7.53;;
30127;SDS011;16942;53.196;6.592;2022-10-17T09:28:46;11.43;;;8.57;;
30127;SDS011;16942;53.196;6.592;2022-10-17T09:31:23;12.27;;;7.37;;
30127;SDS011;16942;53.196;6.592;2022-10-17T09:33:51;14.60;;;8.03;;
30127;SDS011;16942;53.196;6.592;2022-10-17T09:36:19;12.77;;;8.30;;
30127;SDS011;16942;53.196;6.592;2022-10-17T09:38:47;12.63;;;7.57;;
30127;SDS011;16942;53.196;6.592;2022-10-17T09:41:21;10.40;;;7.70;;
30127;SDS011;16942;53.196;6.592;2022-10-17T09:43:47;10.60;;;7.27;;
30127;SDS011;16942;53.196;6.592;2022-10-17T09:46:35;16.63;;;8.43;;
30127;SDS011;16942;53.196;6.592;2022-10-17T09:49:13;11.57;;;8.80;;
30127;SDS011;16942;53.196;6.592;2022-10-17T09:51:41;12.67;;;7.83;;
30127;SDS011;16942;53.196;6.592;2022-10-17T09:54:24;12.87;;;8.37;;
30127;SDS011;16942;53.196;6.592;2022-10-17T09:59:36;11.10;;;8.87;;
30127;SDS011;16942;53.196;6.592;2022-10-17T10:02:07;10.90;;;8.83;;
30127;SDS011;16942;53.196;6.592;2022-10-17T10:04:33;14.87;;;9.10;;
30127;SDS011;16942;53.196;6.592;2022-10-17T10:07:00;13.07;;;8.97;;
30127;SDS011;16942;53.196;6.592;2022-10-17T10:09:27;13.83;;;9.77;;
30127;SDS011;16942;53.196;6.592;2022-10-17T10:11:55;12.47;;;9.33;;
30127;SDS011;16942;53.196;6.592;2022-10-17T10:16:54;13.97;;;10.30;;
30127;SDS011;16942;53.196;6.592;2022-10-17T10:19:30;15.00;;;10.77;;
30127;SDS011;16942;53.196;6.592;2022-10-17T10:22:13;13.50;;;10.07;;
30127;SDS011;16942;53.196;6.592;2022-10-17T10:24:40;19.47;;;10.80;;
30127;SDS011;16942;53.196;6.592;2022-10-17T10:27:10;16.90;;;11.20;;
30127;SDS011;16942;53.196;6.592;2022-10-17T10:29:39;14.33;;;10.93;;
30127;SDS011;16942;53.196;6.592;2022-10-17T10:32:07;16.03;;;10.93;;
30127;SDS011;16942;53.196;6.592;2022-10-17T10:34:34;17.07;;;10.90;;
30127;SDS011;16942;53.196;6.592;2022-10-17T10:37:02;17.07;;;11.43;;
30127;SDS011;16942;53.196;6.592;2022-10-17T10:39:33;16.67;;;11.43;;
30127;SDS011;16942;53.196;6.592;2022-10-17T10:42:00;15.00;;;10.97;;
30127;SDS011;16942;53.196;6.592;2022-10-17T10:44:28;16.00;;;11.50;;
30127;SDS011;16942;53.196;6.592;2022-10-17T10:47:07;16.83;;;12.17;;
30127;SDS011;16942;53.196;6.592;2022-10-17T10:49:34;16.60;;;12.10;;
30127;SDS011;16942;53.196;6.592;2022-10-17T10:52:00;20.17;;;12.43;;
30127;SDS011;16942;53.196;6.592;2022-10-17T10:54:28;14.53;;;11.13;;
30127;SDS011;16942;53.196;6.592;2022-10-17T10:56:58;18.40;;;12.17;;
30127;SDS011;16942;53.196;6.592;2022-10-17T11:07:00;16.07;;;11.10;;
30127;SDS011;16942;53.196;6.592;2022-10-17T11:09:33;16.27;;;11.50;;
30127;SDS011;16942;53.196;6.592;2022-10-17T11:12:05;17.03;;;11.33;;
30127;SDS011;16942;53.196;6.592;2022-10-17T11:17:26;15.23;;;11.00;;
30127;SDS011;16942;53.196;6.592;2022-10-17T11:19:58;17.83;;;12.13;;
30127;SDS011;16942;53.196;6.592;2022-10-17T11:22:29;22.77;;;12.20;;
30127;SDS011;16942;53.196;6.592;2022-10-17T11:27:41;14.47;;;10.67;;
30127;SDS011;16942;53.196;6.592;2022-10-17T11:30:10;16.20;;;10.40;;
30127;SDS011;16942;53.196;6.592;2022-10-17T11:32:42;15.57;;;9.57;;
30127;SDS011;16942;53.196;6.592;2022-10-17T11:35:20;17.20;;;11.03;;
30127;SDS011;16942;53.196;6.592;2022-10-17T11:37:57;14.67;;;10.90;;
30127;SDS011;16942;53.196;6.592;2022-10-17T11:40:30;16.03;;;10.27;;
30127;SDS011;16942;53.196;6.592;2022-10-17T11:43:09;16.20;;;10.40;;
30127;SDS011;16942;53.196;6.592;2022-10-17T11:45:48;13.37;;;10.60;;
30127;SDS011;16942;53.196;6.592;2022-10-17T11:48:21;16.20;;;10.37;;
30127;SDS011;16942;53.196;6.592;2022-10-17T11:50:49;13.40;;;9.60;;
30127;SDS011;16942;53.196;6.592;2022-10-17T11:53:19;14.83;;;10.00;;
30127;SDS011;16942;53.196;6.592;2022-10-17T11:55:47;15.43;;;9.53;;
30127;SDS011;16942;53.196;6.592;2022-10-17T12:03:16;14.60;;;10.13;;
30127;SDS011;16942;53.196;6.592;2022-10-17T12:06:03;15.30;;;9.70;;
30127;SDS011;16942;53.196;6.592;2022-10-17T12:13:48;14.83;;;9.87;;
30127;SDS011;16942;53.196;6.592;2022-10-17T12:18:45;11.40;;;8.80;;
30127;SDS011;16942;53.196;6.592;2022-10-17T12:21:11;13.80;;;9.53;;
30127;SDS011;16942;53.196;6.592;2022-10-17T12:23:37;11.83;;;8.47;;
30127;SDS011;16942;53.196;6.592;2022-10-17T12:26:06;12.27;;;8.70;;
30127;SDS011;16942;53.196;6.592;2022-10-17T12:28:42;10.17;;;7.67;;
30127;SDS011;16942;53.196;6.592;2022-10-17T12:33:37;11.67;;;7.60;;
30127;SDS011;16942;53.196;6.592;2022-10-17T12:38:42;15.13;;;7.80;;
30127;SDS011;16942;53.196;6.592;2022-10-17T12:41:08;10.93;;;7.27;;
30127;SDS011;16942;53.196;6.592;2022-10-17T12:43:35;8.70;;;7.27;;
30127;SDS011;16942;53.196;6.592;2022-10-17T12:46:03;9.90;;;7.07;;
30127;SDS011;16942;53.196;6.592;2022-10-17T12:53:24;8.27;;;5.97;;
30127;SDS011;16942;53.196;6.592;2022-10-17T12:55:59;6.97;;;5.87;;
30127;SDS011;16942;53.196;6.592;2022-10-17T12:58:25;9.73;;;6.07;;
30127;SDS011;16942;53.196;6.592;2022-10-17T13:05:50;7.80;;;5.90;;
30127;SDS011;16942;53.196;6.592;2022-10-17T13:08:22;8.37;;;5.27;;
30127;SDS011;16942;53.196;6.592;2022-10-17T13:10:49;10.47;;;5.10;;
30127;SDS011;16942;53.196;6.592;2022-10-17T13:13:20;8.97;;;5.30;;
30127;SDS011;16942;53.196;6.592;2022-10-17T13:15:48;8.63;;;4.80;;
30127;SDS011;16942;53.196;6.592;2022-10-17T13:18:22;6.07;;;4.73;;
30127;SDS011;16942;53.196;6.592;2022-10-17T13:23:50;7.40;;;5.23;;
30127;SDS011;16942;53.196;6.592;2022-10-17T13:26:19;10.27;;;6.03;;
30127;SDS011;16942;53.196;6.592;2022-10-17T13:28:59;12.20;;;5.57;;
30127;SDS011;16942;53.196;6.592;2022-10-17T13:31:35;9.47;;;5.30;;
30127;SDS011;16942;53.196;6.592;2022-10-17T13:34:03;8.17;;;5.00;;
30127;SDS011;16942;53.196;6.592;2022-10-17T13:36:29;8.00;;;5.43;;
30127;SDS011;16942;53.196;6.592;2022-10-17T13:38:56;7.60;;;5.57;;
30127;SDS011;16942;53.196;6.592;2022-10-17T13:41:24;8.53;;;4.80;;
30127;SDS011;16942;53.196;6.592;2022-10-17T13:43:52;8.73;;;5.13;;
30127;SDS011;16942;53.196;6.592;2022-10-17T13:46:22;8.43;;;4.87;;
30127;SDS011;16942;53.196;6.592;2022-10-17T13:48:50;8.07;;;5.30;;
30127;SDS011;16942;53.196;6.592;2022-10-17T13:51:16;9.60;;;4.53;;
30127;SDS011;16942;53.196;6.592;2022-10-17T13:53:42;5.33;;;4.67;;
30127;SDS011;16942;53.196;6.592;2022-10-17T14:01:07;4.50;;;3.57;;
30127;SDS011;16942;53.196;6.592;2022-10-17T14:03:33;5.67;;;3.27;;
30127;SDS011;16942;53.196;6.592;2022-10-17T14:06:00;6.30;;;3.30;;
30127;SDS011;16942;53.196;6.592;2022-10-17T14:08:28;5.97;;;3.13;;
30127;SDS011;16942;53.196;6.592;2022-10-17T14:10:54;4.37;;;2.63;;
30127;SDS011;16942;53.196;6.592;2022-10-17T14:13:21;5.57;;;3.10;;
30127;SDS011;16942;53.196;6.592;2022-10-17T14:15:49;5.90;;;2.63;;
30127;SDS011;16942;53.196;6.592;2022-10-17T14:18:19;5.27;;;3.10;;
30127;SDS011;16942;53.196;6.592;2022-10-17T14:20:47;7.10;;;3.00;;
30127;SDS011;16942;53.196;6.592;2022-10-17T14:26:06;4.83;;;2.93;;
30127;SDS011;16942;53.196;6.592;2022-10-17T14:28:32;5.47;;;3.40;;
30127;SDS011;16942;53.196;6.592;2022-10-17T14:33:38;6.83;;;2.80;;
30127;SDS011;16942;53.196;6.592;2022-10-17T14:36:08;5.67;;;3.00;;
30127;SDS011;16942;53.196;6.592;2022-10-17T14:38:34;5.13;;;2.80;;
30127;SDS011;16942;53.196;6.592;2022-10-17T14:41:02;4.97;;;3.00;;
30127;SDS011;16942;53.196;6.592;2022-10-17T14:43:30;4.70;;;3.00;;
30127;SDS011;16942;53.196;6.592;2022-10-17T14:45:57;3.37;;;2.83;;
30127;SDS011;16942;53.196;6.592;2022-10-17T14:48:24;4.40;;;3.53;;
30127;SDS011;16942;53.196;6.592;2022-10-17T14:51:07;5.73;;;3.03;;
30127;SDS011;16942;53.196;6.592;2022-10-17T14:53:33;5.27;;;3.13;;
30127;SDS011;16942;53.196;6.592;2022-10-17T14:56:00;7.70;;;3.63;;
30127;SDS011;16942;53.196;6.592;2022-10-17T14:58:27;4.33;;;3.10;;
30127;SDS011;16942;53.196;6.592;2022-10-17T15:00:54;5.93;;;3.33;;
30127;SDS011;16942;53.196;6.592;2022-10-17T15:03:21;7.10;;;4.30;;
30127;SDS011;16942;53.196;6.592;2022-10-17T15:05:48;8.70;;;5.50;;
30127;SDS011;16942;53.196;6.592;2022-10-17T15:08:18;7.17;;;4.50;;
30127;SDS011;16942;53.196;6.592;2022-10-17T15:10:44;4.97;;;3.30;;
30127;SDS011;16942;53.196;6.592;2022-10-17T15:13:11;5.53;;;3.17;;
30127;SDS011;16942;53.196;6.592;2022-10-17T15:15:38;7.53;;;3.47;;
30127;SDS011;16942;53.196;6.592;2022-10-17T15:18:04;6.73;;;2.70;;
30127;SDS011;16942;53.196;6.592;2022-10-17T15:20:31;6.50;;;3.23;;
30127;SDS011;16942;53.196;6.592;2022-10-17T15:22:59;9.70;;;3.07;;
30127;SDS011;16942;53.196;6.592;2022-10-17T15:25:25;7.63;;;2.90;;
30127;SDS011;16942;53.196;6.592;2022-10-17T15:27:52;4.33;;;3.10;;
30127;SDS011;16942;53.196;6.592;2022-10-17T15:30:20;6.37;;;2.67;;
30127;SDS011;16942;53.196;6.592;2022-10-17T15:32:46;4.70;;;2.67;;
30127;SDS011;16942;53.196;6.592;2022-10-17T15:35:12;2.57;;;2.23;;
30127;SDS011;16942;53.196;6.592;2022-10-17T15:37:38;4.50;;;2.60;;
30127;SDS011;16942;53.196;6.592;2022-10-17T15:40:04;3.47;;;2.30;;
30127;SDS011;16942;53.196;6.592;2022-10-17T15:42:31;3.13;;;2.40;;
30127;SDS011;16942;53.196;6.592;2022-10-17T15:44:57;2.90;;;2.20;;
30127;SDS011;16942;53.196;6.592;2022-10-17T15:47:29;4.63;;;2.43;;
30127;SDS011;16942;53.196;6.592;2022-10-17T15:49:59;5.33;;;2.50;;
30127;SDS011;16942;53.196;6.592;2022-10-17T15:52:25;6.17;;;2.47;;
30127;SDS011;16942;53.196;6.592;2022-10-17T15:54:52;7.30;;;2.50;;
30127;SDS011;16942;53.196;6.592;2022-10-17T15:57:19;4.23;;;2.67;;
30127;SDS011;16942;53.196;6.592;2022-10-17T15:59:45;6.97;;;2.50;;
30127;SDS011;16942;53.196;6.592;2022-10-17T16:02:15;6.07;;;3.00;;
30127;SDS011;16942;53.196;6.592;2022-10-17T16:04:42;4.90;;;2.50;;
30127;SDS011;16942;53.196;6.592;2022-10-17T16:07:08;4.97;;;2.80;;
30127;SDS011;16942;53.196;6.592;2022-10-17T16:09:35;7.43;;;2.70;;
30127;SDS011;16942;53.196;6.592;2022-10-17T16:12:04;3.73;;;2.40;;
30127;SDS011;16942;53.196;6.592;2022-10-17T16:14:31;3.17;;;2.43;;
30127;SDS011;16942;53.196;6.592;2022-10-17T16:16:57;6.07;;;3.03;;